Time;durP1;ratioP1;P1;durP2;ratioP2;P2;SDS_P1;SDS_P2;PMS_P1;PMS_P2;Temp;Humidity;BMP_temperature;BMP_pressure;BME280_temperature;BME280_humidity;BME280_pressure;Samples;Min_cycle;Max_cycle;Signal;HPM_P1;HPM_P2
2023/01/21 00:00:41;;;;;;;30.20;15.13;;;-1.10;99.90;;;;;;5111499;27;20062;-82
2023/01/21 00:03:06;;;;;;;31.85;13.63;;;-1.10;99.90;;;;;;5110896;27;20101;-82
2023/01/21 00:05:32;;;;;;;24.05;11.93;;;-1.10;99.90;;;;;;5110835;27;20387;-83
2023/01/21 00:07:58;;;;;;;29.73;14.63;;;-1.10;99.90;;;;;;5109015;27;20042;-83
2023/01/21 00:10:23;;;;;;;30.40;13.52;;;-1.10;99.90;;;;;;5110701;27;20035;-83
2023/01/21 00:12:49;;;;;;;30.33;14.45;;;-1.10;99.90;;;;;;5129327;27;20044;-83
2023/01/21 00:15:15;;;;;;;32.58;15.20;;;-1.10;99.90;;;;;;5129506;27;20047;-83
2023/01/21 00:17:42;;;;;;;34.15;15.52;;;-1.10;99.90;;;;;;5110174;27;20518;-83
2023/01/21 00:20:10;;;;;;;35.13;16.05;;;-1.10;99.90;;;;;;5111517;27;20109;-83
2023/01/21 00:22:35;;;;;;;36.58;16.00;;;-1.00;99.90;;;;;;5127695;27;20039;-83
2023/01/21 00:25:01;;;;;;;35.05;16.58;;;-0.90;99.90;;;;;;5129050;27;20059;-83
2023/01/21 00:27:27;;;;;;;39.85;17.50;;;-0.80;99.90;;;;;;5110710;27;20420;-81
2023/01/21 00:29:53;;;;;;;35.90;17.00;;;-0.70;99.90;;;;;;5109909;27;20039;-81
2023/01/21 00:32:18;;;;;;;38.42;17.02;;;-0.70;99.90;;;;;;5105730;27;20039;-81
2023/01/21 00:34:44;;;;;;;37.08;16.75;;;-0.60;99.90;;;;;;5109868;27;20390;-82
2023/01/21 00:37:10;;;;;;;34.50;15.38;;;-0.60;99.90;;;;;;5108630;27;20041;-82
2023/01/21 00:39:35;;;;;;;36.85;17.08;;;-0.50;99.90;;;;;;5110465;27;20062;-82
2023/01/21 00:42:03;;;;;;;41.90;17.38;;;-0.50;99.90;;;;;;5129270;27;20035;-83
2023/01/21 00:44:29;;;;;;;33.67;16.42;;;-0.40;99.90;;;;;;5128760;27;20039;-82
2023/01/21 00:46:54;;;;;;;38.80;17.88;;;-0.30;99.90;;;;;;5128703;27;20047;-82
2023/01/21 00:49:20;;;;;;;39.33;17.70;;;-0.40;99.90;;;;;;5110173;27;20039;-82
2023/01/21 00:51:45;;;;;;;36.00;17.20;;;-0.30;99.90;;;;;;5106915;27;20055;-81
2023/01/21 00:54:11;;;;;;;34.30;15.20;;;-0.30;99.90;;;;;;5125523;27;20113;-82
2023/01/21 00:56:37;;;;;;;39.55;19.65;;;-0.30;99.90;;;;;;5128775;27;20079;-82
2023/01/21 00:59:02;;;;;;;36.40;17.35;;;-0.20;99.90;;;;;;5127846;27;20092;-82
2023/01/21 01:01:33;;;;;;;35.38;16.27;;;-0.30;99.90;;;;;;5109473;27;20050;-82
2023/01/21 01:03:59;;;;;;;38.35;17.45;;;-0.20;99.90;;;;;;5128483;27;20042;-82
2023/01/21 01:06:25;;;;;;;39.42;18.02;;;-0.20;99.90;;;;;;5129688;27;20038;-81
2023/01/21 01:08:50;;;;;;;40.45;20.02;;;-0.20;99.90;;;;;;5128089;27;21377;-82
2023/01/21 01:11:17;;;;;;;36.17;17.27;;;-0.20;99.90;;;;;;5128582;27;20140;-82
2023/01/21 01:13:43;;;;;;;34.05;16.27;;;-0.20;99.90;;;;;;5127413;27;20035;-81
2023/01/21 01:16:14;;;;;;;34.97;16.40;;;-0.20;99.90;;;;;;5109969;27;20035;-83
2023/01/21 01:18:40;;;;;;;37.77;16.23;;;-0.20;99.90;;;;;;5128680;27;20074;-82
2023/01/21 01:21:09;;;;;;;36.65;16.55;;;-0.20;99.90;;;;;;5123735;27;20067;-83
2023/01/21 01:23:35;;;;;;;37.53;18.25;;;-0.20;99.90;;;;;;5128224;27;20063;-82
2023/01/21 01:26:04;;;;;;;41.15;19.83;;;-0.20;99.90;;;;;;5131370;27;20114;-82
2023/01/21 01:28:31;;;;;;;36.92;15.63;;;-0.20;99.90;;;;;;5110047;27;20042;-82
2023/01/21 01:30:57;;;;;;;35.50;17.08;;;-0.20;99.90;;;;;;5114220;27;20118;-83
2023/01/21 01:33:23;;;;;;;37.28;17.70;;;-0.20;99.90;;;;;;5109495;27;20462;-82
2023/01/21 01:35:49;;;;;;;37.85;17.42;;;-0.20;99.90;;;;;;5109129;27;20031;-82
2023/01/21 01:38:16;;;;;;;37.35;16.13;;;-0.20;99.90;;;;;;5111045;27;20292;-82
2023/01/21 01:40:42;;;;;;;34.38;14.93;;;-0.20;99.90;;;;;;5110176;27;20099;-82
2023/01/21 01:43:16;;;;;;;33.63;15.02;;;-0.10;99.90;;;;;;5126429;27;20039;-82
2023/01/21 01:45:41;;;;;;;39.13;18.00;;;-0.20;99.90;;;;;;5109065;27;20107;-82
2023/01/21 01:48:13;;;;;;;37.88;16.70;;;-0.10;99.90;;;;;;5129599;27;20503;-82
2023/01/21 01:50:39;;;;;;;36.20;18.08;;;-0.10;99.90;;;;;;5141815;27;20091;-82
2023/01/21 01:53:04;;;;;;;34.08;15.95;;;-0.10;99.90;;;;;;5109632;27;20053;-82
2023/01/21 01:55:34;;;;;;;39.90;16.13;;;-0.10;99.90;;;;;;5128402;27;20368;-82
2023/01/21 01:58:01;;;;;;;36.90;15.70;;;0.00;99.90;;;;;;5127236;27;20038;-83
2023/01/21 02:00:27;;;;;;;33.53;16.00;;;0.00;99.90;;;;;;5103133;27;20419;-82
2023/01/21 02:05:39;;;;;;;38.38;17.38;;;0.00;99.90;;;;;;5133016;27;20071;-82
2023/01/21 02:08:06;;;;;;;35.55;17.25;;;0.00;99.90;;;;;;5127363;27;20045;-82
2023/01/21 02:10:33;;;;;;;37.50;16.60;;;0.00;99.90;;;;;;5110689;28;20670;-83
2023/01/21 02:12:59;;;;;;;38.45;17.50;;;0.00;99.90;;;;;;5136799;27;20031;-82
2023/01/21 02:15:34;;;;;;;37.83;15.65;;;0.00;99.90;;;;;;5135691;27;20359;-82
2023/01/21 02:18:18;;;;;;;37.58;15.50;;;0.00;99.90;;;;;;5115194;28;20527;-82
2023/01/21 02:21:11;;;;;;;35.60;16.65;;;0.00;99.90;;;;;;5122529;27;20098;-83
2023/01/21 02:24:09;;;;;;;33.85;14.52;;;0.00;99.90;;;;;;5112399;27;20055;-82
2023/01/21 02:27:00;;;;;;;38.42;17.02;;;0.00;99.90;;;;;;5129066;27;20035;-82
2023/01/21 02:29:44;;;;;;;34.83;14.63;;;0.10;99.90;;;;;;5125260;27;20035;-82
2023/01/21 02:32:20;;;;;;;33.90;17.02;;;0.10;99.90;;;;;;5134623;27;20042;-82
2023/01/21 02:35:00;;;;;;;36.70;16.98;;;0.10;99.90;;;;;;5114076;27;20039;-82
2023/01/21 02:37:25;;;;;;;35.85;16.85;;;0.10;99.90;;;;;;5136922;27;20066;-82
2023/01/21 02:40:12;;;;;;;35.08;16.27;;;0.10;99.90;;;;;;5116389;27;20067;-82
2023/01/21 02:42:45;;;;;;;37.03;15.70;;;0.10;99.90;;;;;;5135308;27;20054;-82
2023/01/21 02:45:40;;;;;;;39.13;16.73;;;0.20;99.90;;;;;;5143162;27;20058;-82
2023/01/21 02:48:35;;;;;;;35.30;15.82;;;0.20;99.90;;;;;;5142714;27;20061;-82
2023/01/21 02:51:01;;;;;;;36.90;17.38;;;0.20;99.90;;;;;;5138944;27;20126;-82
2023/01/21 02:53:32;;;;;;;37.35;15.45;;;0.20;99.90;;;;;;5135110;27;20099;-81
2023/01/21 02:56:00;;;;;;;;;;;0.20;99.90;;;;;;5113303;27;20051;-82
2023/01/21 02:58:33;;;;;;;37.17;15.70;;;0.20;99.90;;;;;;5139901;27;19919;-80
2023/01/21 03:01:20;;;;;;;37.17;16.15;;;0.20;99.90;;;;;;5115344;27;20039;-81
2023/01/21 03:04:13;;;;;;;33.70;15.07;;;0.20;99.90;;;;;;5136738;27;20045;-82
2023/01/21 03:06:57;;;;;;;39.20;17.30;;;0.30;99.90;;;;;;5135782;27;20039;-82
2023/01/21 03:09:30;;;;;;;36.00;15.95;;;0.30;99.90;;;;;;5136253;27;20049;-82
2023/01/21 03:12:08;;;;;;;33.75;15.75;;;0.30;99.90;;;;;;5095013;27;20055;-82
2023/01/21 03:17:50;;;;;;;40.70;17.60;;;0.30;99.90;;;;;;5134536;27;20129;-82
2023/01/21 03:20:22;;;;;;;40.05;18.10;;;0.30;99.90;;;;;;5115549;27;20093;-84
2023/01/21 03:22:50;;;;;;;43.35;17.67;;;0.30;99.90;;;;;;5133214;27;20035;-82
2023/01/21 03:25:17;;;;;;;39.58;17.85;;;0.30;99.90;;;;;;5127977;27;20407;-82
2023/01/21 03:27:44;;;;;;;43.78;17.73;;;0.20;99.90;;;;;;5130276;27;20058;-83
2023/01/21 03:30:23;;;;;;;43.70;18.85;;;0.20;99.90;;;;;;5114414;27;20110;-82
2023/01/21 03:32:50;;;;;;;37.00;17.73;;;0.20;99.90;;;;;;5140046;27;20496;-83
2023/01/21 03:35:37;;;;;;;41.65;18.63;;;0.20;99.90;;;;;;5131887;27;20436;-82
2023/01/21 03:38:15;;;;;;;39.65;17.23;;;0.20;99.90;;;;;;5131304;27;20031;-83
2023/01/21 03:40:55;;;;;;;40.30;18.45;;;0.20;99.90;;;;;;5131831;27;20695;-82
2023/01/21 03:43:21;;;;;;;38.90;17.95;;;0.20;99.90;;;;;;5109010;27;20122;-83
2023/01/21 03:46:18;;;;;;;41.08;16.63;;;0.20;99.90;;;;;;5131842;27;20114;-83
2023/01/21 03:49:07;;;;;;;38.45;16.63;;;0.20;99.90;;;;;;5107886;27;20055;-82
2023/01/21 03:51:37;;;;;;;41.15;17.48;;;0.20;99.90;;;;;;5025493;28;20060;-83
2023/01/21 03:54:03;;;;;;;39.20;17.27;;;0.30;99.90;;;;;;5031114;28;20785;-82
2023/01/21 03:56:29;;;;;;;41.20;18.15;;;0.30;99.90;;;;;;5048111;28;20179;-81
2023/01/21 03:58:54;;;;;;;39.88;17.85;;;0.30;99.90;;;;;;5048096;28;20040;-83
2023/01/21 04:01:20;;;;;;;37.05;16.98;;;0.30;99.90;;;;;;5032126;28;20069;-83
2023/01/21 04:03:47;;;;;;;41.25;17.30;;;0.30;99.90;;;;;;5029267;28;20520;-82
2023/01/21 04:06:15;;;;;;;41.13;18.05;;;0.30;99.90;;;;;;5030054;28;20044;-83
2023/01/21 04:08:40;;;;;;;39.65;17.20;;;0.30;99.90;;;;;;5030755;28;20063;-82
2023/01/21 04:11:06;;;;;;;38.65;18.15;;;0.30;99.90;;;;;;5030991;28;20131;-83
2023/01/21 04:13:31;;;;;;;45.53;19.55;;;0.30;99.90;;;;;;5047188;28;20075;-83
2023/01/21 04:15:57;;;;;;;42.13;18.90;;;0.30;99.90;;;;;;5046346;28;20048;-83
2023/01/21 04:18:23;;;;;;;39.65;17.77;;;0.20;99.90;;;;;;5013972;28;20033;-82
2023/01/21 04:20:48;;;;;;;37.70;17.67;;;0.20;99.90;;;;;;5047044;28;20045;-83
2023/01/21 04:23:14;;;;;;;41.47;17.90;;;0.10;99.90;;;;;;5046892;28;20048;-82
2023/01/21 04:25:39;;;;;;;37.75;18.17;;;0.00;99.90;;;;;;5047247;28;20080;-82
2023/01/21 04:28:05;;;;;;;40.53;17.35;;;0.00;99.90;;;;;;5075599;27;20050;-83
2023/01/21 04:30:31;;;;;;;38.28;17.25;;;-0.10;99.90;;;;;;5130601;27;20118;-83
2023/01/21 04:32:56;;;;;;;40.70;17.50;;;-0.10;99.90;;;;;;5112113;27;20041;-83
2023/01/21 04:35:22;;;;;;;32.83;14.48;;;-0.10;99.90;;;;;;5094331;27;20535;-82
2023/01/21 04:37:48;;;;;;;35.85;16.33;;;-0.10;99.90;;;;;;5110923;27;20036;-83
2023/01/21 04:40:13;;;;;;;40.42;17.02;;;0.00;99.90;;;;;;5108739;27;20383;-83
2023/01/21 04:42:41;;;;;;;39.10;16.33;;;0.00;99.90;;;;;;5111850;27;21259;-84
2023/01/21 04:45:07;;;;;;;40.22;16.75;;;0.00;99.90;;;;;;5142515;27;20130;-84
2023/01/21 04:47:33;;;;;;;39.88;16.98;;;0.00;99.90;;;;;;5130533;27;20103;-83
2023/01/21 04:49:58;;;;;;;40.72;16.65;;;0.00;99.90;;;;;;5131064;27;20043;-83
2023/01/21 04:52:24;;;;;;;38.38;15.32;;;-0.10;99.90;;;;;;5129823;27;20038;-84
2023/01/21 04:54:49;;;;;;;32.40;14.77;;;-0.10;99.90;;;;;;5114815;27;20042;-84
2023/01/21 04:57:15;;;;;;;33.83;15.82;;;-0.20;99.90;;;;;;5112988;27;20035;-84
2023/01/21 04:59:41;;;;;;;37.92;17.35;;;-0.20;99.90;;;;;;5145041;27;20031;-83
2023/01/21 05:02:06;;;;;;;39.67;15.43;;;-0.30;99.90;;;;;;5129570;27;20483;-83
2023/01/21 05:04:32;;;;;;;37.30;16.23;;;-0.40;99.90;;;;;;5141898;27;20043;-83
2023/01/21 05:06:58;;;;;;;40.03;17.10;;;-0.40;99.90;;;;;;5130878;27;20039;-83
2023/01/21 05:09:23;;;;;;;38.15;17.73;;;-0.50;99.90;;;;;;5133600;27;20023;-83
2023/01/21 05:11:49;;;;;;;38.45;18.17;;;-0.50;99.90;;;;;;5114609;27;20046;-84
2023/01/21 05:14:14;;;;;;;34.08;15.43;;;-0.50;99.90;;;;;;5111723;27;20027;-84
2023/01/21 05:16:40;;;;;;;37.30;16.48;;;-0.60;99.90;;;;;;5098044;27;20043;-84
2023/01/21 05:19:06;;;;;;;33.90;14.93;;;-0.60;99.90;;;;;;5132554;27;20039;-84
2023/01/21 05:21:31;;;;;;;37.70;16.13;;;-0.60;99.90;;;;;;5114423;27;20395;-84
2023/01/21 05:23:57;;;;;;;38.95;16.65;;;-0.60;99.90;;;;;;5131231;27;20124;-84
2023/01/21 05:26:23;;;;;;;34.30;14.73;;;-0.60;99.90;;;;;;5112211;27;20039;-83
2023/01/21 05:28:48;;;;;;;36.58;16.27;;;-0.60;99.90;;;;;;5112846;27;20062;-84
2023/01/21 05:31:14;;;;;;;36.95;15.85;;;-0.60;99.90;;;;;;5112943;27;20402;-84
2023/01/21 05:33:42;;;;;;;36.80;15.82;;;-0.60;99.90;;;;;;5116072;27;20035;-84
2023/01/21 05:36:09;;;;;;;40.40;16.48;;;-0.70;99.90;;;;;;5111791;27;20035;-83
2023/01/21 05:38:34;;;;;;;35.35;15.85;;;-0.60;99.90;;;;;;5102875;27;20043;-84
2023/01/21 05:41:02;;;;;;;34.15;16.60;;;-0.60;99.90;;;;;;5123923;27;20042;-84
2023/01/21 05:43:28;;;;;;;34.15;15.63;;;-0.60;99.90;;;;;;5125144;27;20042;-83
2023/01/21 05:45:54;;;;;;;38.53;16.98;;;-0.50;99.90;;;;;;5152999;27;20476;-83
2023/01/21 05:48:20;;;;;;;36.72;16.08;;;-0.50;99.90;;;;;;5133278;27;20044;-83
2023/01/21 05:50:47;;;;;;;37.35;16.05;;;-0.50;99.90;;;;;;5154470;27;20043;-83
2023/01/21 05:53:13;;;;;;;41.03;17.73;;;-0.50;99.90;;;;;;5144566;27;20051;-83
2023/01/21 05:55:39;;;;;;;42.50;17.48;;;-0.50;99.90;;;;;;5118872;27;20484;-83
2023/01/21 05:58:04;;;;;;;39.55;17.25;;;-0.50;99.90;;;;;;5133462;27;20039;-83
2023/01/21 06:00:30;;;;;;;46.95;20.10;;;-0.50;99.90;;;;;;5131446;27;20546;-83
2023/01/21 06:02:58;;;;;;;41.53;18.85;;;-0.40;99.90;;;;;;5130484;27;20047;-83
2023/01/21 06:05:24;;;;;;;38.72;17.83;;;-0.40;99.90;;;;;;5129186;27;20035;-84
2023/01/21 06:07:50;;;;;;;39.83;16.48;;;-0.40;99.90;;;;;;5111268;27;20043;-83
2023/01/21 06:10:15;;;;;;;35.67;15.43;;;-0.30;99.90;;;;;;5111162;28;20058;-83
2023/01/21 06:12:41;;;;;;;38.30;15.95;;;-0.30;99.90;;;;;;5094510;28;20410;-83
2023/01/21 06:15:07;;;;;;;41.30;16.85;;;-0.30;99.90;;;;;;5095638;27;20099;-83
2023/01/21 06:17:33;;;;;;;42.20;18.45;;;-0.20;99.90;;;;;;5093150;28;20035;-83
2023/01/21 06:19:58;;;;;;;37.30;18.50;;;-0.20;99.90;;;;;;5130799;27;20047;-84
2023/01/21 06:22:24;;;;;;;38.42;16.73;;;-0.20;99.90;;;;;;5111460;28;20522;-84
2023/01/21 06:24:49;;;;;;;42.38;18.10;;;-0.10;99.90;;;;;;5129820;28;20134;-84
2023/01/21 06:27:15;;;;;;;57.00;26.90;;;-0.10;99.90;;;;;;5129085;28;20054;-84
2023/01/21 06:29:41;;;;;;;45.13;17.13;;;-0.10;99.90;;;;;;5111150;27;20043;-84
2023/01/21 06:32:06;;;;;;;41.28;18.80;;;-0.10;99.90;;;;;;5126940;27;20479;-86
2023/01/21 06:34:32;;;;;;;43.78;18.48;;;-0.10;99.90;;;;;;5104207;27;20064;-90
2023/01/21 06:36:57;;;;;;;40.92;17.10;;;0.00;99.90;;;;;;5133067;27;20035;-87
2023/01/21 06:39:23;;;;;;;41.38;16.80;;;0.00;99.90;;;;;;5130597;27;20031;-89
2023/01/21 06:41:49;;;;;;;42.63;16.95;;;0.00;99.90;;;;;;5130252;28;20040;-88
2023/01/21 06:44:14;;;;;;;38.05;16.95;;;0.00;99.90;;;;;;5108948;28;20087;-85
2023/01/21 06:46:40;;;;;;;35.70;15.57;;;0.00;99.90;;;;;;5112091;28;20096;-91
2023/01/21 06:49:05;;;;;;;41.08;16.17;;;0.00;99.90;;;;;;5132708;27;20392;-88
2023/01/21 06:51:31;;;;;;;39.97;18.05;;;0.10;99.90;;;;;;5112018;28;20031;-87
2023/01/21 06:53:57;;;;;;;40.33;16.42;;;0.10;99.90;;;;;;5130156;28;20031;-86
2023/01/21 06:56:22;;;;;;;34.22;15.15;;;0.20;99.90;;;;;;5095429;28;20483;-87
2023/01/21 06:58:48;;;;;;;39.33;17.10;;;0.10;99.90;;;;;;5131162;27;20042;-87
2023/01/21 07:01:13;;;;;;;36.35;16.90;;;0.20;99.90;;;;;;5110534;28;20031;-91
2023/01/21 07:03:39;;;;;;;40.83;17.90;;;0.20;99.90;;;;;;5113264;28;20134;-88
2023/01/21 07:06:05;;;;;;;36.80;15.80;;;0.20;99.90;;;;;;5111624;28;20047;-89
2023/01/21 07:08:30;;;;;;;39.65;17.98;;;0.20;99.90;;;;;;5111641;28;21643;-85
2023/01/21 07:10:56;;;;;;;39.75;15.27;;;0.20;99.90;;;;;;5112772;28;20038;-87
2023/01/21 07:13:22;;;;;;;42.28;17.30;;;0.20;99.90;;;;;;5111186;28;20411;-85
2023/01/21 07:15:47;;;;;;;36.75;14.57;;;0.20;99.90;;;;;;5109215;28;20054;-86
2023/01/21 07:18:13;;;;;;;36.25;16.10;;;0.20;99.90;;;;;;5116689;27;20035;-85
2023/01/21 07:20:39;;;;;;;43.58;19.15;;;0.20;99.90;;;;;;5115648;27;20094;-86
2023/01/21 07:23:04;;;;;;;36.33;15.00;;;0.20;99.90;;;;;;5115230;27;20050;-88
2023/01/21 07:25:31;;;;;;;37.40;15.13;;;0.20;99.90;;;;;;5114661;27;20061;-87
2023/01/21 07:27:57;;;;;;;41.67;18.67;;;0.20;99.90;;;;;;5129735;27;20088;-88
2023/01/21 07:30:23;;;;;;;36.53;15.85;;;0.30;99.90;;;;;;5112197;27;20035;-86
2023/01/21 07:32:48;;;;;;;40.85;16.35;;;0.30;99.90;;;;;;5139226;27;20043;-85
2023/01/21 07:35:14;;;;;;;40.95;18.23;;;0.30;99.90;;;;;;5135811;27;20421;-85
2023/01/21 07:37:40;;;;;;;35.88;15.90;;;0.30;99.90;;;;;;5110462;27;20039;-86
2023/01/21 07:40:06;;;;;;;37.90;16.70;;;0.30;99.90;;;;;;5118235;27;20031;-86
2023/01/21 07:42:32;;;;;;;38.05;16.38;;;0.30;99.90;;;;;;5111117;27;20051;-85
2023/01/21 07:44:58;;;;;;;36.63;16.48;;;0.30;99.90;;;;;;5113077;27;20441;-85
2023/01/21 07:47:24;;;;;;;38.97;16.83;;;0.30;99.90;;;;;;5110876;27;20050;-83
2023/01/21 07:49:50;;;;;;;39.90;17.92;;;0.30;99.90;;;;;;5118227;27;20039;-86
2023/01/21 07:52:16;;;;;;;38.92;19.90;;;0.30;99.90;;;;;;5143866;27;20043;-88
2023/01/21 07:54:41;;;;;;;43.63;20.98;;;0.40;99.90;;;;;;5097951;27;20039;-83
2023/01/21 07:57:07;;;;;;;40.28;18.80;;;0.40;99.90;;;;;;5112747;27;20070;-85
2023/01/21 07:59:33;;;;;;;37.42;16.10;;;0.30;99.90;;;;;;5124123;27;20035;-85
2023/01/21 08:01:58;;;;;;;35.38;14.95;;;0.40;99.90;;;;;;5119605;27;20042;-85
2023/01/21 08:04:24;;;;;;;33.67;14.07;;;0.40;99.90;;;;;;5133357;27;20054;-87
2023/01/21 08:06:55;;;;;;;37.53;16.27;;;0.30;99.90;;;;;;5112176;27;20035;-87
2023/01/21 08:09:25;;;;;;;36.00;17.83;;;0.30;99.90;;;;;;5133078;27;20035;-85
2023/01/21 08:11:51;;;;;;;41.63;17.55;;;0.40;99.90;;;;;;5135528;27;20045;-87
2023/01/21 08:14:17;;;;;;;38.03;16.55;;;0.30;99.90;;;;;;5115092;27;20039;-87
2023/01/21 08:16:42;;;;;;;39.88;17.70;;;0.40;99.90;;;;;;5099515;27;20081;-87
2023/01/21 08:19:08;;;;;;;37.80;17.80;;;0.40;99.90;;;;;;5135839;27;20419;-87
2023/01/21 08:21:34;;;;;;;38.97;17.42;;;0.30;99.90;;;;;;5120445;27;20043;-87
2023/01/21 08:23:59;;;;;;;40.40;18.25;;;0.40;99.90;;;;;;5115725;27;20059;-87
2023/01/21 08:26:25;;;;;;;39.10;16.88;;;0.40;99.90;;;;;;5134530;27;20050;-86
2023/01/21 08:28:53;;;;;;;41.65;17.90;;;0.40;99.90;;;;;;5135119;27;20056;-87
2023/01/21 08:31:19;;;;;;;35.08;18.23;;;0.40;99.90;;;;;;5122860;27;20039;-88
2023/01/21 08:33:45;;;;;;;38.47;18.98;;;0.40;99.90;;;;;;5134580;27;20084;-85
2023/01/21 08:36:11;;;;;;;37.58;17.70;;;0.40;99.90;;;;;;5134411;27;20047;-85
2023/01/21 08:38:36;;;;;;;43.13;18.63;;;0.40;99.90;;;;;;5131896;27;20031;-87
2023/01/21 08:41:03;;;;;;;42.28;19.35;;;0.40;99.90;;;;;;5118961;27;20039;-84
2023/01/21 08:43:28;;;;;;;37.55;17.83;;;0.50;99.90;;;;;;5129051;27;20042;-83
2023/01/21 08:45:56;;;;;;;38.05;17.80;;;0.50;99.90;;;;;;5117748;27;20047;-84
2023/01/21 08:48:21;;;;;;;40.10;18.00;;;0.50;99.90;;;;;;5117733;27;20068;-82
2023/01/21 08:50:47;;;;;;;42.00;18.73;;;0.50;99.90;;;;;;5133700;27;20027;-82
2023/01/21 08:53:13;;;;;;;56.33;36.03;;;0.50;99.90;;;;;;5124929;27;20031;-81
2023/01/21 08:55:38;;;;;;;38.13;17.98;;;0.60;99.90;;;;;;5128590;27;20050;-83
2023/01/21 08:58:04;;;;;;;40.13;17.23;;;0.60;99.90;;;;;;5141088;27;20035;-85
2023/01/21 09:00:30;;;;;;;33.90;15.98;;;0.60;99.90;;;;;;5145740;27;20031;-83
2023/01/21 09:02:58;;;;;;;38.20;16.25;;;0.60;99.90;;;;;;5130372;27;20118;-83
2023/01/21 09:05:23;;;;;;;36.45;16.38;;;0.70;99.90;;;;;;5109197;27;20534;-82
2023/01/21 09:07:49;;;;;;;35.60;18.25;;;0.70;99.90;;;;;;5141283;27;20047;-83
2023/01/21 09:10:59;;;;;;;37.47;17.30;;;0.70;99.90;;;;;;5130017;27;20084;-83
2023/01/21 09:13:15;;;;;;;39.63;15.63;;;0.70;99.90;;;;;;5109408;27;20123;-83
2023/01/21 09:15:41;;;;;;;38.92;17.42;;;0.80;99.90;;;;;;5108575;27;20522;-83
2023/01/21 09:18:07;;;;;;;34.90;16.10;;;0.80;99.90;;;;;;5115033;27;20035;-83
2023/01/21 09:20:33;;;;;;;36.28;17.88;;;0.80;99.90;;;;;;5130188;27;20042;-83
2023/01/21 09:22:59;;;;;;;37.03;17.15;;;0.90;99.90;;;;;;5128058;27;20041;-83
2023/01/21 09:25:25;;;;;;;40.95;19.10;;;0.90;99.90;;;;;;5110847;27;20146;-82
2023/01/21 09:27:51;;;;;;;37.53;16.73;;;1.00;99.90;;;;;;5115013;27;20099;-83
2023/01/21 09:30:17;;;;;;;35.20;16.45;;;1.00;99.90;;;;;;5108360;27;20039;-84
2023/01/21 09:32:42;;;;;;;34.70;15.88;;;1.00;99.90;;;;;;5108238;27;20501;-82
2023/01/21 09:35:08;;;;;;;35.97;16.60;;;1.00;99.90;;;;;;5109874;27;20091;-82
2023/01/21 09:37:34;;;;;;;40.58;19.00;;;1.10;99.90;;;;;;5128979;27;20511;-84
2023/01/21 09:40:00;;;;;;;37.60;17.00;;;1.10;99.90;;;;;;5129027;27;20672;-84
2023/01/21 09:42:29;;;;;;;37.40;18.98;;;1.10;99.90;;;;;;5108301;27;20630;-83
2023/01/21 09:44:58;;;;;;;39.60;17.48;;;1.10;99.90;;;;;;5113437;27;20122;-83
2023/01/21 09:47:31;;;;;;;41.03;18.25;;;1.10;99.90;;;;;;5145446;27;20035;-82
2023/01/21 09:50:19;;;;;;;38.03;17.13;;;1.20;99.90;;;;;;5113180;27;20089;-83
2023/01/21 09:52:53;;;;;;;33.83;17.77;;;1.20;99.90;;;;;;5108279;27;20335;-82
2023/01/21 09:55:39;;;;;;;73.75;31.92;;;1.20;99.90;;;;;;5129784;27;20046;-82
2023/01/21 09:58:16;;;;;;;41.47;19.45;;;1.20;99.90;;;;;;5127494;27;20605;-83
2023/01/21 10:01:19;;;;;;;41.05;19.15;;;1.30;99.90;;;;;;5126216;27;20038;-83
2023/01/21 10:04:00;;;;;;;43.95;21.77;;;1.30;99.90;;;;;;5107682;27;20055;-82
2023/01/21 10:06:53;;;;;;;43.30;21.60;;;1.30;99.90;;;;;;5131803;27;20067;-82
2023/01/21 10:09:32;;;;;;;40.22;20.25;;;1.40;99.90;;;;;;5125244;27;20027;-83
2023/01/21 10:12:18;;;;;;;36.08;18.67;;;1.30;99.90;;;;;;5129988;27;20039;-83
2023/01/21 10:15:18;;;;;;;38.30;17.42;;;1.40;99.90;;;;;;5133518;27;20047;-83
2023/01/21 10:17:55;;;;;;;37.65;19.40;;;1.50;99.90;;;;;;5124660;27;20039;-83
2023/01/21 10:20:32;;;;;;;40.97;19.13;;;1.60;99.90;;;;;;5108339;28;20039;-82
2023/01/21 10:23:13;;;;;;;42.80;20.58;;;1.60;99.90;;;;;;5103573;28;20078;-84
2023/01/21 10:25:39;;;;;;;40.30;18.10;;;1.60;99.90;;;;;;5082057;28;20488;-84
2023/01/21 10:28:27;;;;;;;43.35;21.85;;;1.60;99.90;;;;;;5084690;28;20036;-83
2023/01/21 10:30:55;;;;;;;87.18;46.45;;;1.60;99.90;;;;;;5092726;28;20060;-82
2023/01/21 10:33:26;;;;;;;39.88;21.58;;;1.70;99.90;;;;;;5092089;28;20036;-80
2023/01/21 10:36:17;;;;;;;37.78;19.13;;;1.80;99.90;;;;;;5088346;28;20047;-79
2023/01/21 10:38:48;;;;;;;46.40;27.30;;;1.80;99.90;;;;;;5081415;28;20047;-81
2023/01/21 10:41:47;;;;;;;34.95;18.30;;;1.80;99.90;;;;;;5088233;28;20076;-81
2023/01/21 10:44:16;;;;;;;41.60;23.98;;;1.90;99.90;;;;;;5087847;28;20436;-81
2023/01/21 10:47:09;;;;;;;38.15;20.15;;;1.90;99.90;;;;;;5084369;28;20044;-83
2023/01/21 10:49:47;;;;;;;36.55;18.85;;;1.90;99.90;;;;;;5085139;28;20431;-80
2023/01/21 10:52:36;;;;;;;33.95;18.30;;;1.90;99.90;;;;;;5086638;28;20040;-79
2023/01/21 10:55:25;;;;;;;34.80;18.08;;;1.90;99.90;;;;;;5088643;28;20052;-82
2023/01/21 10:58:12;;;;;;;37.30;18.45;;;1.80;99.90;;;;;;5089362;28;20040;-81
2023/01/21 11:00:46;;;;;;;40.25;19.10;;;1.70;99.90;;;;;;5081988;28;20036;-80
2023/01/21 11:03:34;;;;;;;35.15;17.60;;;1.70;99.90;;;;;;5086832;28;20051;-84
2023/01/21 11:06:03;;;;;;;32.58;17.20;;;1.60;99.90;;;;;;5090082;28;20516;-84
2023/01/21 11:08:29;;;;;;;33.55;17.42;;;1.60;99.90;;;;;;5088859;28;20040;-82
2023/01/21 11:10:55;;;;;;;79.45;53.22;;;1.60;99.90;;;;;;5089504;28;20048;-81
2023/01/21 11:13:22;;;;;;;33.15;17.17;;;1.60;99.90;;;;;;5085879;28;20032;-83
2023/01/21 11:15:52;;;;;;;35.03;17.63;;;1.60;99.90;;;;;;5088459;28;20080;-82
2023/01/21 11:18:25;;;;;;;34.95;18.92;;;1.60;99.90;;;;;;5083481;28;20039;-82
2023/01/21 11:20:58;;;;;;;35.08;17.92;;;1.60;99.90;;;;;;5086225;28;20067;-82
2023/01/21 11:23:34;;;;;;;42.53;18.40;;;1.70;99.90;;;;;;5077135;27;20032;-82
2023/01/21 11:26:15;;;;;;;32.90;15.57;;;1.70;99.90;;;;;;5105970;27;20048;-79
2023/01/21 11:28:41;;;;;;;37.15;19.40;;;1.80;99.90;;;;;;5131187;27;20039;-79
2023/01/21 11:31:25;;;;;;;33.08;16.75;;;1.80;99.90;;;;;;5112837;27;20038;-82
2023/01/21 11:33:51;;;;;;;32.15;16.73;;;1.90;99.90;;;;;;5126852;27;20671;-81
2023/01/21 11:36:19;;;;;;;35.20;16.77;;;2.00;99.90;;;;;;5130792;27;20042;-80
2023/01/21 11:38:58;;;;;;;37.22;18.65;;;2.10;99.90;;;;;;5114975;27;20039;-79
2023/01/21 11:41:24;;;;;;;33.97;18.58;;;2.10;99.90;;;;;;5113366;27;20535;-81
2023/01/21 11:43:50;;;;;;;31.40;15.57;;;2.20;99.90;;;;;;5116230;27;20047;-80
2023/01/21 11:46:48;;;;;;;32.20;16.80;;;2.20;99.90;;;;;;5132328;27;20038;-80
2023/01/21 11:49:14;;;;;;;34.53;18.33;;;2.30;99.90;;;;;;5061102;27;20079;-82
2023/01/21 11:51:41;;;;;;;35.22;17.65;;;2.30;99.90;;;;;;5114063;27;20077;-82
2023/01/21 11:54:22;;;;;;;33.42;20.63;;;2.30;99.90;;;;;;5113261;27;20042;-80
2023/01/21 11:56:57;;;;;;;35.35;18.30;;;2.50;99.90;;;;;;5137660;27;20035;-80
2023/01/21 11:59:33;;;;;;;34.17;18.15;;;2.50;99.90;;;;;;5134443;27;20035;-79
2023/01/21 12:02:20;;;;;;;29.65;16.63;;;2.70;99.90;;;;;;5115346;27;20182;-80
2023/01/21 12:05:01;;;;;;;31.52;16.95;;;2.70;99.90;;;;;;5110049;27;20711;-80
2023/01/21 12:07:38;;;;;;;27.23;15.32;;;2.90;99.90;;;;;;5110903;27;20036;-81
2023/01/21 12:10:29;;;;;;;30.60;16.98;;;3.00;99.90;;;;;;5132431;27;20122;-83
2023/01/21 12:13:12;;;;;;;29.40;16.67;;;3.10;99.90;;;;;;5101926;27;20135;-83
2023/01/21 12:15:56;;;;;;;29.80;15.40;;;3.20;99.90;;;;;;5112463;27;20114;-82
2023/01/21 12:19:01;;;;;;;30.63;18.05;;;3.30;99.90;;;;;;5128549;27;20054;-82
2023/01/21 12:21:44;;;;;;;32.45;17.38;;;3.40;99.90;;;;;;5111983;27;20047;-81
2023/01/21 12:24:26;;;;;;;29.40;17.10;;;3.50;99.90;;;;;;5108045;27;20044;-82
2023/01/21 12:27:00;;;;;;;;;;;3.60;99.90;;;;;;5110163;27;20112;-86
2023/01/21 12:29:54;;;;;;;47.45;21.98;;;3.60;99.90;;;;;;5109813;28;20318;-86
2023/01/21 12:32:26;;;;;;;25.13;14.57;;;3.70;99.90;;;;;;5087827;28;20126;-86
2023/01/21 12:34:58;;;;;;;24.70;13.00;;;3.80;99.90;;;;;;5107581;28;20039;-85
2023/01/21 12:37:45;;;;;;;25.35;13.55;;;3.80;99.90;;;;;;5110310;27;20036;-85
2023/01/21 12:40:22;;;;;;;19.90;11.45;;;3.80;99.90;;;;;;5111671;28;20054;-86
2023/01/21 12:42:54;;;;;;;22.35;11.30;;;3.90;99.90;;;;;;5108379;28;20089;-86
2023/01/21 12:45:26;;;;;;;23.20;14.05;;;3.90;99.90;;;;;;5110074;28;20403;-86
2023/01/21 12:48:11;;;;;;;22.98;14.00;;;3.90;99.90;;;;;;5103347;28;20440;-86
2023/01/21 12:50:49;;;;;;;28.27;18.98;;;3.90;99.90;;;;;;5108269;28;20373;-86
2023/01/21 12:53:34;;;;;;;24.52;14.20;;;3.80;99.90;;;;;;5110074;28;20047;-86
2023/01/21 12:55:59;;;;;;;22.33;13.20;;;3.80;99.90;;;;;;5109846;28;20039;-86